Bookmark and Share
Track history (hours):
 

Leverkusen Express

Last reported at 2013-Jan-07 17:33 UTC. Time now 2014-Apr-18 10:51 UTC.
Position N 22°19' E 114°06'.
Warning: this ship's position is years out of date!

Length 294 m; beam 32.3 m; draft 13.5 m.

Type: Ship. MMSI: 211200450.

NotesDate/timePositionNaut miles runAvg speedWind from/ knotsBaromVisibWave heightAir tempDewpointWater temp
2013-Jan-07 17:33N 22°19' E 114°06'18 3.6
2013-Jan-07 12:32N 22°34' E 114°16'0 0.1
2013-Jan-07 11:35N 22°34' E 114°16'0 0.0
2013-Jan-07 09:31N 22°34' E 114°16'0 0.0
2013-Jan-07 08:32N 22°34' E 114°16'0 0.0
2013-Jan-07 07:33N 22°34' E 114°16'0 0.1
2013-Jan-07 06:33N 22°34' E 114°16'0 0.1
2013-Jan-07 05:31N 22°34' E 114°16'0 0.1
2013-Jan-07 04:33N 22°34' E 114°16'0 0.0
2013-Jan-07 02:32N 22°34' E 114°16'0 0.1
2013-Jan-07 01:33N 22°34' E 114°16'19 1.9
2013-Jan-06 15:30N 22°18' E 114°06'1111.2
2013-Jan-06 14:33N 22°21' E 113°55'6 6.1
2013-Jan-06 13:34N 22°27' E 113°54'0 0.1
2013-Jan-06 12:34N 22°27' E 113°54'0 0.0
2013-Jan-06 11:56N 22°27' E 113°54'0 0.0
2013-Jan-06 10:33N 22°27' E 113°54'0 0.0
2013-Jan-06 09:33N 22°27' E 113°54'0 0.0
2013-Jan-06 08:33N 22°27' E 113°54'0 0.0
2013-Jan-06 07:33N 22°27' E 113°54'0 0.0
2013-Jan-06 06:32N 22°27' E 113°54'0 0.0
2013-Jan-06 06:01N 22°27' E 113°54'0 0.0
2013-Jan-06 04:34N 22°27' E 113°54'0 0.0
2013-Jan-06 03:33N 22°27' E 113°54'0 0.0
2013-Jan-06 02:34N 22°27' E 113°54'0 0.0
2013-Jan-06 01:34N 22°27' E 113°54'0 0.4
2013-Jan-06 00:33N 22°27' E 113°54'31516.6
2013-Jan-05 05:35N 22°24' E 119°34'1111.1
2013-Jan-05 04:33N 22°26' E 119°46'1717.0
2013-Jan-05 03:33N 22°31' E 120°04'1413.8
2013-Jan-05 02:33N 22°33' E 120°19'1 1.2
2013-Jan-05 01:33N 22°34' E 120°18'0 0.1
2013-Jan-05 00:33N 22°34' E 120°18'0 0.0
2013-Jan-04 23:34N 22°34' E 120°18'0 0.0
2013-Jan-04 22:34N 22°34' E 120°18'0 0.0
2013-Jan-04 21:33N 22°34' E 120°18'0 0.0
2013-Jan-04 20:33N 22°34' E 120°18'0 0.0
2013-Jan-04 19:33N 22°34' E 120°18'0 0.0
2013-Jan-04 18:33N 22°34' E 120°18'0 0.0
2013-Jan-04 17:33N 22°34' E 120°18'4 3.5
2013-Jan-04 16:33N 22°32' E 120°15'1211.5
2013-Jan-04 15:33N 22°41' E 120°07'1615.5
2013-Jan-04 14:33N 22°54' E 119°57'10514.9
2013-Jan-04 07:31N 24°05' E 118°33'1616.4
2013-Jan-04 06:34N 24°11' E 118°17'1414.8
2013-Jan-04 05:36N 24°22' E 118°08'9 8.5
2013-Jan-04 04:33N 24°31' E 118°05'0 0.2
2013-Jan-04 03:33N 24°31' E 118°05'0 0.0
2013-Jan-04 02:33N 24°31' E 118°05'0 0.0
2013-Jan-04 01:32N 24°31' E 118°05'0 0.0
2013-Jan-04 00:33N 24°31' E 118°05'0 0.0
2013-Jan-03 23:33N 24°31' E 118°05'0 0.0
2013-Jan-03 22:33N 24°31' E 118°05'0 0.0
2013-Jan-03 21:33N 24°31' E 118°05'0 0.0
2013-Jan-03 20:33N 24°31' E 118°05'0 0.0
2013-Jan-03 19:33N 24°31' E 118°05'0 0.0
2013-Jan-03 18:33N 24°31' E 118°05'1 1.1
2013-Jan-03 17:34N 24°30' E 118°04'9 8.9
2013-Jan-03 16:33N 24°22' E 118°08'9 8.9
2013-Jan-03 15:33N 24°14' E 118°13'1111.4
2013-Jan-03 14:34N 24°11' E 118°25'1716.3
2013-Jan-03 13:31N 24°17' E 118°42'  
2012-Dec-31 12:00N 31°18' E 129°30'20517.1 330 / 211022.010.8 8.5 3.218.0
2012-Dec-31 00:00N 30°36' E 133°24'21017.5 300 / 301016.510.8 3.012.0 2.320.0
2012-Dec-30 12:00N 30°00' E 137°24'31217.3 260 / 301005.9 5.4 18.517.020.0
2012-Dec-29 18:00N 29°12' E 143°18'10617.6 080 / 171018.510.8 18.512.720.0
2012-Dec-29 12:00N 29°00' E 145°18'10517.5 340 / 131019.010.8 19.015.919.0
2012-Dec-29 06:00N 29°00' E 147°18'10517.5 240 / 301016.5 5.4 2.520.016.921.0
2012-Dec-29 00:00N 29°00' E 149°18'10016.6 170 / 281021.010.8 2.520.011.620.0
2012-Dec-28 18:00N 29°00' E 151°12'   130 / 71022.110.8 18.0 6.321.0

Dump ship's entire track history

sailing weather and tide predictions

Leverkusen Express — DEHY — position and weather